Time;durP1;ratioP1;P1;durP2;ratioP2;P2;SDS_P1;SDS_P2;PMS_P1;PMS_P2;Temp;Humidity;BMP_temperature;BMP_pressure;BME280_temperature;BME280_humidity;BME280_pressure;Samples;Min_cycle;Max_cycle;Signal;HPM_P1;HPM_P2
2022/01/22 00:02:10;;;;;;;10.07;4.63;;;6.40;99.90;;;;;;4990922;28;20105;-76
2022/01/22 00:04:40;;;;;;;10.88;4.18;;;6.40;99.90;;;;;;4991202;28;20534;-77
2022/01/22 00:07:06;;;;;;;12.30;4.30;;;6.40;99.90;;;;;;4991874;28;20110;-76
2022/01/22 00:09:38;;;;;;;18.80;5.72;;;6.40;99.90;;;;;;4992543;28;20037;-77
2022/01/22 00:12:08;;;;;;;6.90;3.65;;;6.40;99.90;;;;;;4992940;28;20030;-77
2022/01/22 00:14:36;;;;;;;10.18;4.50;;;6.40;99.90;;;;;;4993206;28;20037;-77
2022/01/22 00:17:10;;;;;;;16.02;5.00;;;6.40;99.90;;;;;;4993672;28;20023;-76
2022/01/22 00:19:35;;;;;;;10.05;3.67;;;6.40;99.90;;;;;;4992381;28;20037;-76
2022/01/22 00:22:03;;;;;;;9.63;4.20;;;6.40;99.90;;;;;;4991955;28;20030;-76
2022/01/22 00:24:36;;;;;;;11.32;4.53;;;6.40;99.90;;;;;;4992225;28;20038;-75
2022/01/22 00:27:02;;;;;;;8.88;4.63;;;6.40;99.90;;;;;;4993033;28;20061;-76
2022/01/22 00:29:28;;;;;;;7.88;3.72;;;6.40;99.90;;;;;;4994073;28;20117;-76
2022/01/22 00:31:54;;;;;;;12.10;4.13;;;6.40;99.90;;;;;;4991385;28;20442;-75
2022/01/22 00:34:19;;;;;;;7.28;3.50;;;6.40;99.90;;;;;;4994209;28;20022;-77
2022/01/22 00:36:45;;;;;;;6.47;3.55;;;6.50;99.90;;;;;;4993224;28;20030;-76
2022/01/22 00:39:11;;;;;;;8.68;3.35;;;6.50;99.90;;;;;;4993164;28;20214;-77
2022/01/22 00:41:36;;;;;;;5.88;3.08;;;6.50;99.90;;;;;;4975845;28;20073;-77
2022/01/22 00:44:03;;;;;;;11.15;4.20;;;6.50;99.90;;;;;;4992834;28;20026;-76
2022/01/22 00:46:28;;;;;;;7.03;2.85;;;6.50;99.90;;;;;;4989555;28;20118;-76
2022/01/22 00:48:54;;;;;;;8.27;3.30;;;6.50;99.90;;;;;;4988781;28;20097;-75
2022/01/22 00:51:20;;;;;;;8.60;3.80;;;6.50;99.90;;;;;;4991872;28;20042;-76
2022/01/22 00:53:46;;;;;;;9.05;3.30;;;6.50;99.90;;;;;;4991594;28;20160;-77
2022/01/22 00:56:13;;;;;;;13.88;3.80;;;6.50;99.90;;;;;;4990044;28;20034;-75
2022/01/22 00:58:39;;;;;;;9.13;3.58;;;6.50;99.90;;;;;;4992773;28;20053;-76
2022/01/22 01:01:10;;;;;;;9.20;3.40;;;6.50;99.90;;;;;;4988711;28;20018;-76
2022/01/22 01:03:37;;;;;;;7.78;3.08;;;6.50;99.90;;;;;;4989825;28;20038;-76
2022/01/22 01:06:05;;;;;;;8.85;2.85;;;6.50;99.90;;;;;;4990429;28;20056;-77
2022/01/22 01:08:33;;;;;;;9.65;3.00;;;6.50;99.90;;;;;;4991704;28;20022;-77
2022/01/22 01:11:00;;;;;;;13.52;3.20;;;6.50;99.90;;;;;;4991242;28;20057;-76
2022/01/22 01:13:28;;;;;;;6.28;3.03;;;6.50;99.90;;;;;;4975595;28;20096;-76
2022/01/22 01:15:59;;;;;;;6.78;2.78;;;6.50;99.90;;;;;;4990678;28;20023;-77
2022/01/22 01:32:13;;;;;;;6.43;2.40;;;6.40;99.90;;;;;;4991526;28;20026;-77
2022/01/22 01:34:42;;;;;;;9.48;2.72;;;6.40;99.90;;;;;;4991911;28;20419;-76
2022/01/22 01:37:08;;;;;;;9.23;3.13;;;6.40;99.90;;;;;;4992289;28;20099;-76
2022/01/22 01:39:36;;;;;;;6.68;2.47;;;6.40;99.90;;;;;;4991575;28;20511;-76
2022/01/22 01:44:29;;;;;;;5.97;2.90;;;6.40;99.90;;;;;;4991005;28;20037;-78
2022/01/22 01:46:58;;;;;;;7.22;2.70;;;6.40;99.90;;;;;;4989569;28;20397;-77
2022/01/22 01:49:25;;;;;;;9.13;2.90;;;6.40;99.90;;;;;;4989697;28;20106;-77
2022/01/22 01:51:53;;;;;;;7.28;2.50;;;6.40;99.90;;;;;;4988628;28;20030;-77
2022/01/22 01:54:44;;;;;;;6.90;3.22;;;6.40;99.90;;;;;;4991846;28;20388;-76
2022/01/22 01:59:54;;;;;;;9.07;3.25;;;6.40;99.90;;;;;;4990775;28;20043;-76
2022/01/22 02:02:26;;;;;;;7.50;2.70;;;6.40;99.90;;;;;;4989537;28;20113;-77
2022/01/22 02:04:51;;;;;;;8.43;3.00;;;6.40;99.90;;;;;;4991184;28;20038;-77
2022/01/22 02:07:17;;;;;;;6.80;3.33;;;6.40;99.90;;;;;;4994546;28;20038;-77
2022/01/22 02:09:44;;;;;;;8.68;3.63;;;6.30;99.90;;;;;;4973611;28;20105;-77
2022/01/22 02:12:16;;;;;;;8.07;3.20;;;6.30;99.90;;;;;;4989432;28;20105;-77
2022/01/22 02:25:41;;;;;;;11.65;3.70;;;6.40;99.90;;;;;;4990629;28;20034;-77
2022/01/22 02:28:07;;;;;;;11.95;3.80;;;6.40;99.90;;;;;;4990560;28;20041;-77
2022/01/22 02:30:37;;;;;;;9.77;4.00;;;6.40;99.90;;;;;;4993972;28;20030;-77
2022/01/22 02:35:55;;;;;;;15.40;4.00;;;6.40;99.90;;;;;;4994635;28;20018;-77
2022/01/22 02:38:31;;;;;;;16.65;4.30;;;6.30;99.90;;;;;;4992982;28;20412;-76
2022/01/22 02:40:57;;;;;;;11.63;3.85;;;6.30;99.90;;;;;;4993748;28;20038;-77
2022/01/22 02:43:24;;;;;;;14.20;4.60;;;6.30;99.90;;;;;;4994453;28;20041;-77
2022/01/22 02:45:50;;;;;;;16.50;4.95;;;6.30;99.90;;;;;;4993951;28;20065;-77
2022/01/22 02:48:16;;;;;;;10.65;4.75;;;6.30;99.90;;;;;;4994899;28;20023;-77
2022/01/22 02:50:42;;;;;;;15.80;6.45;;;6.30;99.90;;;;;;4999365;28;20037;-77
2022/01/22 02:53:10;;;;;;;17.08;6.57;;;6.30;99.90;;;;;;5006994;28;20068;-78
2022/01/22 02:55:37;;;;;;;12.45;6.38;;;6.30;99.90;;;;;;4996749;28;20088;-78
2022/01/22 02:58:03;;;;;;;16.17;7.22;;;6.40;99.90;;;;;;4995646;28;20690;-78
2022/01/22 03:00:29;;;;;;;15.88;6.75;;;6.40;99.90;;;;;;4995948;28;20582;-78
2022/01/22 03:02:55;;;;;;;13.00;7.32;;;6.40;99.90;;;;;;4994827;28;20058;-78
2022/01/22 03:05:21;;;;;;;18.52;9.05;;;6.40;99.90;;;;;;4992618;28;20062;-77
2022/01/22 03:07:51;;;;;;;17.23;7.70;;;6.40;99.90;;;;;;4993227;28;20026;-77
2022/01/22 03:10:21;;;;;;;15.23;7.87;;;6.40;99.90;;;;;;4993301;28;20670;-79
2022/01/22 03:13:04;;;;;;;20.00;8.77;;;6.40;99.90;;;;;;4997682;28;20018;-78
2022/01/22 03:15:52;;;;;;;19.92;8.90;;;6.40;99.90;;;;;;4996085;28;20049;-75
2022/01/22 03:18:22;;;;;;;19.60;9.85;;;6.40;99.90;;;;;;4997150;28;20050;-77
2022/01/22 03:29:03;;;;;;;19.90;8.13;;;6.40;99.90;;;;;;4996643;28;20042;-77
2022/01/22 03:31:29;;;;;;;23.88;9.68;;;6.40;99.90;;;;;;4990115;28;20042;-77
2022/01/22 03:33:55;;;;;;;17.25;7.95;;;6.40;99.90;;;;;;4990030;28;20101;-78
2022/01/22 03:36:21;;;;;;;22.35;9.38;;;6.40;99.90;;;;;;4994770;28;20061;-77
2022/01/22 03:38:48;;;;;;;20.95;8.50;;;6.40;99.90;;;;;;4996233;28;20025;-77
2022/01/22 03:41:14;;;;;;;25.73;9.52;;;6.40;99.90;;;;;;4993129;28;20027;-77
2022/01/22 03:43:40;;;;;;;22.58;8.68;;;6.40;99.90;;;;;;4994459;28;20420;-77
2022/01/22 03:46:06;;;;;;;21.58;8.70;;;6.40;99.90;;;;;;4996958;28;20040;-77
2022/01/22 03:48:32;;;;;;;17.42;7.65;;;6.40;99.90;;;;;;4995216;28;20511;-76
2022/01/22 03:50:57;;;;;;;20.95;8.05;;;6.40;99.90;;;;;;4995703;28;20037;-76
2022/01/22 03:53:23;;;;;;;20.17;7.93;;;6.40;99.90;;;;;;4996192;28;20042;-77
2022/01/22 03:56:02;;;;;;;19.58;8.57;;;6.50;99.90;;;;;;4994887;28;20034;-77
2022/01/22 03:58:33;;;;;;;20.58;7.88;;;6.40;99.90;;;;;;4994658;28;20089;-76
2022/01/22 04:02:06;;;;;;;19.92;7.20;;;6.40;99.90;;;;;;4992437;28;20137;-77
2022/01/22 04:08:51;;;;;;;18.08;8.52;;;6.50;99.90;;;;;;4989371;28;20022;-76
2022/01/22 04:11:17;;;;;;;19.33;7.85;;;6.50;99.90;;;;;;4992706;28;20027;-77
2022/01/22 04:13:45;;;;;;;16.27;6.65;;;6.40;99.90;;;;;;4995400;28;20539;-76
2022/01/22 04:16:13;;;;;;;24.23;7.85;;;6.40;99.90;;;;;;4994309;28;20400;-77
2022/01/22 04:26:58;;;;;;;13.50;6.25;;;6.40;99.90;;;;;;4994612;28;20089;-77
2022/01/22 04:29:26;;;;;;;17.20;6.35;;;6.40;99.90;;;;;;4995628;28;20065;-76
2022/01/22 04:31:53;;;;;;;15.75;6.43;;;6.50;99.90;;;;;;4992762;28;20061;-77
2022/01/22 04:34:19;;;;;;;16.33;6.97;;;6.50;99.90;;;;;;4993889;28;21714;-77
2022/01/22 04:36:44;;;;;;;14.77;5.82;;;6.50;99.90;;;;;;4997734;28;20029;-77
2022/01/22 04:39:11;;;;;;;16.20;6.28;;;6.50;99.90;;;;;;5001187;28;20030;-77
2022/01/22 04:41:37;;;;;;;19.02;6.68;;;6.50;99.90;;;;;;4995120;28;20045;-77
2022/01/22 04:44:05;;;;;;;15.82;6.80;;;6.50;99.90;;;;;;4997995;28;20034;-78
2022/01/22 04:49:11;;;;;;;19.27;7.38;;;6.50;99.90;;;;;;4996454;28;20034;-77
2022/01/22 04:57:07;;;;;;;22.00;7.43;;;6.50;99.90;;;;;;4993750;28;20033;-78
2022/01/22 04:59:33;;;;;;;17.40;7.22;;;6.40;99.90;;;;;;4992620;28;20026;-78
2022/01/22 05:02:02;;;;;;;15.93;6.82;;;6.40;99.90;;;;;;4990702;28;20398;-78
2022/01/22 05:04:28;;;;;;;18.63;6.72;;;6.50;99.90;;;;;;4992666;28;20022;-77
2022/01/22 05:06:54;;;;;;;18.73;6.53;;;6.50;99.90;;;;;;4994596;28;20053;-78
2022/01/22 05:09:19;;;;;;;18.90;6.70;;;6.40;99.90;;;;;;4975027;28;20058;-78
2022/01/22 05:11:45;;;;;;;19.42;6.75;;;6.40;99.90;;;;;;4994328;28;20440;-78
2022/01/22 05:14:11;;;;;;;15.43;5.82;;;6.50;99.90;;;;;;4998684;28;20034;-77
2022/01/22 05:16:37;;;;;;;18.75;7.18;;;6.40;99.90;;;;;;5003271;28;20027;-75
2022/01/22 05:19:23;;;;;;;22.58;7.45;;;6.50;99.90;;;;;;4989319;28;20566;-77
2022/01/22 05:21:51;;;;;;;17.05;6.72;;;6.40;99.90;;;;;;4991030;28;20057;-77
2022/01/22 05:24:22;;;;;;;16.83;6.90;;;6.40;99.90;;;;;;4998432;28;20030;-78
2022/01/22 05:32:31;;;;;;;25.42;8.45;;;6.40;99.90;;;;;;4990246;28;20049;-77
2022/01/22 05:37:42;;;;;;;24.30;9.63;;;6.40;99.90;;;;;;4993527;28;20445;-78
2022/01/22 05:40:08;;;;;;;30.67;10.88;;;6.40;99.90;;;;;;4990700;28;20065;-78
2022/01/22 05:42:36;;;;;;;20.58;8.73;;;6.30;99.90;;;;;;4988102;28;20538;-77
2022/01/22 05:45:05;;;;;;;25.63;9.70;;;6.30;99.90;;;;;;4992438;28;20109;-77
2022/01/22 05:47:32;;;;;;;21.92;11.00;;;6.30;99.90;;;;;;4992938;28;20515;-77
2022/01/22 05:50:00;;;;;;;23.42;9.98;;;6.30;99.90;;;;;;4991669;28;20098;-78
2022/01/22 05:52:34;;;;;;;22.58;10.00;;;6.30;99.90;;;;;;4991759;28;20022;-77
2022/01/22 06:00:13;;;;;;;24.95;10.85;;;6.30;99.90;;;;;;4989257;28;20065;-76
2022/01/22 06:02:40;;;;;;;27.23;11.20;;;6.30;99.90;;;;;;4988881;28;20073;-78
2022/01/22 06:05:06;;;;;;;23.02;9.55;;;6.30;99.90;;;;;;4990607;28;20034;-77
2022/01/22 06:07:32;;;;;;;25.52;11.20;;;6.30;99.90;;;;;;4993900;28;20033;-77
2022/01/22 06:15:07;;;;;;;27.65;11.48;;;6.30;99.90;;;;;;4986709;28;20041;-77
2022/01/22 06:17:33;;;;;;;28.73;11.48;;;6.30;99.90;;;;;;4991771;28;20468;-76
2022/01/22 06:19:59;;;;;;;33.25;13.60;;;6.30;99.90;;;;;;4987255;28;20088;-77
2022/01/22 06:22:25;;;;;;;34.17;12.50;;;6.30;99.90;;;;;;4995530;28;20039;-77
2022/01/22 06:24:50;;;;;;;36.47;12.98;;;6.30;99.90;;;;;;4992162;28;20035;-76
2022/01/22 06:27:16;;;;;;;33.47;12.90;;;6.30;99.90;;;;;;4991179;28;20497;-78
2022/01/22 06:29:42;;;;;;;37.10;13.55;;;6.30;99.90;;;;;;4974036;28;20038;-77
2022/01/22 06:32:07;;;;;;;34.22;12.75;;;6.30;99.90;;;;;;4990665;28;20033;-78
2022/01/22 06:34:33;;;;;;;28.90;12.35;;;6.30;99.90;;;;;;4991595;28;20030;-77
2022/01/22 06:36:59;;;;;;;32.35;12.35;;;6.30;99.90;;;;;;4993518;28;20484;-77
2022/01/22 06:39:26;;;;;;;31.70;12.88;;;6.30;99.90;;;;;;4989114;28;20034;-77
2022/01/22 06:41:52;;;;;;;33.17;12.75;;;6.30;99.90;;;;;;4988197;28;20030;-77
2022/01/22 06:44:21;;;;;;;35.33;12.48;;;6.30;99.90;;;;;;4991536;28;20018;-77
2022/01/22 06:46:51;;;;;;;31.77;11.68;;;6.30;99.90;;;;;;4989428;28;20027;-78
2022/01/22 06:49:17;;;;;;;26.45;11.63;;;6.20;99.90;;;;;;4993632;28;20052;-77
2022/01/22 06:51:42;;;;;;;32.58;12.13;;;6.20;99.90;;;;;;4994444;28;20026;-77
2022/01/22 06:54:11;;;;;;;31.40;13.32;;;6.30;99.90;;;;;;4994958;28;20018;-77
2022/01/22 06:56:38;;;;;;;28.52;13.27;;;6.30;99.90;;;;;;4989767;28;20023;-77
2022/01/22 06:59:08;;;;;;;27.38;11.95;;;6.20;99.90;;;;;;4985415;28;20031;-78
2022/01/22 07:01:35;;;;;;;27.25;12.15;;;6.20;99.90;;;;;;4988886;28;20054;-77
2022/01/22 07:04:01;;;;;;;32.00;11.85;;;6.20;99.90;;;;;;5010958;28;20044;-77
2022/01/22 07:06:27;;;;;;;29.75;11.18;;;6.20;99.90;;;;;;4973104;28;20019;-74
2022/01/22 07:08:52;;;;;;;21.35;10.00;;;6.20;99.90;;;;;;4993026;28;20088;-76
2022/01/22 07:11:19;;;;;;;27.30;11.13;;;6.30;99.90;;;;;;4997286;28;20026;-77
2022/01/22 07:13:45;;;;;;;22.42;8.75;;;6.30;99.90;;;;;;4995852;28;20126;-76
2022/01/22 07:16:11;;;;;;;22.27;9.75;;;6.30;99.90;;;;;;4998644;28;20503;-78
2022/01/22 07:18:37;;;;;;;28.75;10.48;;;6.30;99.90;;;;;;4996147;28;20030;-77
2022/01/22 07:21:13;;;;;;;26.90;10.02;;;6.20;99.90;;;;;;4992521;28;20397;-78
2022/01/22 07:26:14;;;;;;;34.67;12.02;;;6.30;99.90;;;;;;4995747;28;20058;-78
2022/01/22 07:28:40;;;;;;;28.25;10.93;;;6.30;99.90;;;;;;4995087;28;20429;-77
2022/01/22 07:31:07;;;;;;;32.08;11.63;;;6.20;99.90;;;;;;4995816;28;20112;-77
2022/01/22 07:33:34;;;;;;;30.42;11.32;;;6.20;99.90;;;;;;4994158;28;20048;-77
2022/01/22 07:36:01;;;;;;;34.35;10.88;;;6.20;99.90;;;;;;4997786;28;20034;-78
2022/01/22 07:38:27;;;;;;;25.92;10.35;;;6.20;99.90;;;;;;4995252;28;20133;-77
2022/01/22 07:40:52;;;;;;;36.55;13.00;;;6.20;99.90;;;;;;4993681;28;20508;-77
2022/01/22 07:43:18;;;;;;;27.75;11.10;;;6.30;99.90;;;;;;4985704;28;20030;-76
2022/01/22 07:45:44;;;;;;;32.05;11.18;;;6.40;99.90;;;;;;4991602;28;20030;-77
2022/01/22 07:48:10;;;;;;;33.75;10.55;;;6.30;99.90;;;;;;4992532;28;20052;-76
2022/01/22 07:50:36;;;;;;;29.23;10.40;;;6.40;99.90;;;;;;5007931;28;20034;-78
2022/01/22 07:53:02;;;;;;;24.05;9.48;;;6.40;99.90;;;;;;4992367;28;20031;-77
2022/01/22 07:55:29;;;;;;;27.00;9.68;;;6.40;99.90;;;;;;4991339;28;20060;-77
2022/01/22 07:57:54;;;;;;;27.48;7.95;;;6.40;99.90;;;;;;4994600;28;20078;-78
2022/01/22 08:00:20;;;;;;;22.92;8.25;;;6.40;99.90;;;;;;4995319;28;20105;-78
2022/01/22 08:02:47;;;;;;;25.73;8.18;;;6.40;99.90;;;;;;4992511;28;20396;-78
2022/01/22 08:05:13;;;;;;;29.52;8.35;;;6.30;99.90;;;;;;4993460;28;20030;-77
2022/01/22 08:07:43;;;;;;;25.13;8.63;;;6.30;99.90;;;;;;4994235;28;20038;-78
2022/01/22 08:10:10;;;;;;;21.80;7.38;;;6.30;99.90;;;;;;4993412;28;20030;-77
2022/01/22 08:12:40;;;;;;;15.23;6.50;;;6.30;99.90;;;;;;4990217;28;20077;-76
2022/01/22 08:15:07;;;;;;;19.58;7.47;;;6.30;99.90;;;;;;4992959;28;20025;-77
2022/01/22 08:17:33;;;;;;;19.80;6.97;;;6.30;99.90;;;;;;4990443;28;20030;-75
2022/01/22 08:19:59;;;;;;;16.80;6.20;;;6.30;99.90;;;;;;5009569;28;20030;-77
2022/01/22 08:22:25;;;;;;;13.80;6.18;;;6.30;99.90;;;;;;4993931;28;20820;-79
2022/01/22 08:24:53;;;;;;;12.95;5.47;;;6.30;99.90;;;;;;4993312;28;20034;-77
2022/01/22 08:27:33;;;;;;;15.02;5.63;;;6.30;99.90;;;;;;4986641;28;20470;-76
2022/01/22 08:29:59;;;;;;;12.77;6.15;;;6.30;99.90;;;;;;4987116;28;20120;-77
2022/01/22 08:37:52;;;;;;;12.00;5.00;;;6.40;99.90;;;;;;4990874;28;20026;-77
2022/01/22 08:40:18;;;;;;;15.00;5.53;;;6.40;99.90;;;;;;4990847;28;20110;-78
2022/01/22 08:42:45;;;;;;;13.05;5.60;;;6.40;99.90;;;;;;4991108;28;20140;-77
2022/01/22 08:45:11;;;;;;;16.70;6.38;;;6.50;99.90;;;;;;4989699;28;20314;-77
2022/01/22 08:47:37;;;;;;;20.77;6.68;;;6.40;99.90;;;;;;4989430;28;20030;-76
2022/01/22 08:50:04;;;;;;;16.42;5.85;;;6.40;99.90;;;;;;4992015;28;20033;-74
2022/01/22 08:52:34;;;;;;;14.20;6.13;;;6.50;99.90;;;;;;4987063;28;20026;-76
2022/01/22 08:55:00;;;;;;;15.18;5.68;;;6.50;99.90;;;;;;4990791;28;20109;-76
2022/01/22 08:57:26;;;;;;;12.27;4.90;;;6.50;99.90;;;;;;4992756;28;20109;-76
2022/01/22 08:59:52;;;;;;;14.40;5.90;;;6.60;99.90;;;;;;4991058;28;20026;-75
2022/01/22 09:02:17;;;;;;;18.33;6.05;;;6.50;99.90;;;;;;4990209;28;20029;-76
2022/01/22 09:04:46;;;;;;;19.95;6.75;;;6.50;99.90;;;;;;4989433;28;20026;-78
2022/01/22 09:07:13;;;;;;;15.18;5.93;;;6.50;99.90;;;;;;4990900;28;20033;-77
2022/01/22 09:09:39;;;;;;;18.35;6.75;;;6.50;99.90;;;;;;4992203;28;20086;-77
2022/01/22 09:12:07;;;;;;;20.23;6.68;;;6.50;99.90;;;;;;4992068;28;20030;-77
2022/01/22 09:14:33;;;;;;;14.00;7.03;;;6.50;99.90;;;;;;4991986;28;20384;-76
2022/01/22 09:16:59;;;;;;;13.00;6.25;;;6.50;99.90;;;;;;4990777;28;20105;-76
2022/01/22 09:19:36;;;;;;;18.33;6.75;;;6.50;99.90;;;;;;4990657;28;20027;-76
2022/01/22 09:22:05;;;;;;;15.10;6.93;;;6.60;99.90;;;;;;4992201;28;20088;-77
2022/01/22 09:24:30;;;;;;;14.93;6.70;;;6.60;99.90;;;;;;4991411;28;20132;-77
2022/01/22 09:26:58;;;;;;;13.52;7.00;;;6.60;99.90;;;;;;4994332;28;20090;-77
2022/01/22 09:29:25;;;;;;;16.55;7.07;;;6.60;99.90;;;;;;4996879;28;20094;-76
2022/01/22 09:31:50;;;;;;;15.02;6.20;;;6.50;99.90;;;;;;4992893;28;20030;-77
2022/01/22 09:34:16;;;;;;;13.70;5.80;;;6.50;99.90;;;;;;4995185;28;20518;-77
2022/01/22 09:36:42;;;;;;;11.63;5.43;;;6.60;99.90;;;;;;4989923;28;20038;-79
2022/01/22 09:39:09;;;;;;;15.02;6.45;;;6.60;99.90;;;;;;4991683;28;20476;-77
2022/01/22 09:41:35;;;;;;;17.00;5.97;;;6.70;99.90;;;;;;4991758;28;20803;-78
2022/01/22 09:44:01;;;;;;;12.75;5.70;;;6.70;99.90;;;;;;4993509;28;20105;-75
2022/01/22 09:46:27;;;;;;;13.85;5.80;;;6.70;99.90;;;;;;4993087;28;20022;-77
2022/01/22 09:48:54;;;;;;;12.35;6.10;;;6.70;99.90;;;;;;4991396;28;20057;-78
2022/01/22 09:51:20;;;;;;;12.98;5.88;;;6.70;99.90;;;;;;4996847;28;20026;-78
2022/01/22 09:53:46;;;;;;;13.10;5.60;;;6.70;99.90;;;;;;4989886;28;20037;-78
2022/01/22 09:56:13;;;;;;;14.82;5.70;;;6.70;99.90;;;;;;4993402;28;20026;-78
2022/01/22 09:58:38;;;;;;;12.90;5.60;;;6.70;99.90;;;;;;4997780;28;20641;-77
2022/01/22 10:01:28;;;;;;;17.13;6.05;;;6.70;99.90;;;;;;4997347;28;20158;-77
2022/01/22 10:03:58;;;;;;;13.68;6.43;;;6.70;99.90;;;;;;4984616;28;20045;-75
2022/01/22 10:06:26;;;;;;;12.68;5.38;;;6.80;99.90;;;;;;4989044;28;20048;-76
2022/01/22 10:09:04;;;;;;;17.23;6.40;;;6.80;99.90;;;;;;4979191;28;20038;-76
2022/01/22 10:11:29;;;;;;;16.45;5.55;;;6.80;99.90;;;;;;4984960;28;20113;-76
2022/01/22 10:13:59;;;;;;;12.82;5.20;;;6.80;99.90;;;;;;4987608;28;20886;-76
2022/01/22 10:16:36;;;;;;;14.52;4.70;;;6.90;99.90;;;;;;4990007;28;20038;-77
2022/01/22 10:19:08;;;;;;;11.25;5.22;;;6.90;99.90;;;;;;4992767;28;20113;-77
2022/01/22 10:21:34;;;;;;;12.30;5.13;;;6.90;99.90;;;;;;4985104;28;20030;-75
2022/01/22 10:25:04;;;;;;;14.65;5.82;;;6.90;99.90;;;;;;4983253;28;20101;-76
2022/01/22 10:27:37;;;;;;;14.73;6.15;;;7.00;99.90;;;;;;4983735;28;20056;-76
2022/01/22 10:30:14;;;;;;;13.90;6.25;;;6.90;99.90;;;;;;4985719;28;20034;-76
2022/01/22 10:35:18;;;;;;;14.77;7.07;;;6.90;99.90;;;;;;4990924;28;20469;-77
2022/01/22 10:37:45;;;;;;;15.98;6.97;;;6.90;99.90;;;;;;4990035;28;20037;-79
2022/01/22 10:40:30;;;;;;;17.40;7.50;;;6.80;99.90;;;;;;4990085;28;20106;-77
2022/01/22 10:43:11;;;;;;;18.17;7.88;;;6.90;99.90;;;;;;4991104;28;20034;-77
2022/01/22 10:45:41;;;;;;;14.70;7.63;;;6.90;99.90;;;;;;4992210;28;20034;-77
2022/01/22 10:48:22;;;;;;;17.55;7.80;;;6.90;99.90;;;;;;4989960;28;20373;-75
2022/01/22 10:51:02;;;;;;;17.38;7.75;;;6.90;99.90;;;;;;4992504;28;20026;-76
2022/01/22 10:53:41;;;;;;;19.05;7.05;;;7.00;99.90;;;;;;4994568;28;20044;-77
2022/01/22 10:56:07;;;;;;;16.05;7.45;;;6.90;99.90;;;;;;4995964;28;20034;-77
2022/01/22 10:58:34;;;;;;;15.93;7.07;;;6.90;99.90;;;;;;4994630;28;20030;-77
2022/01/22 11:01:05;;;;;;;15.45;6.82;;;7.00;99.90;;;;;;4995254;28;20062;-77
2022/01/22 11:03:32;;;;;;;16.95;6.45;;;7.00;99.90;;;;;;4994306;28;20030;-77
2022/01/22 11:06:05;;;;;;;11.45;5.20;;;7.00;99.90;;;;;;4992069;28;20034;-76
2022/01/22 11:08:31;;;;;;;8.55;4.82;;;7.10;99.90;;;;;;4991479;28;20034;-76
2022/01/22 11:11:01;;;;;;;13.00;5.00;;;7.10;99.90;;;;;;4993302;28;20061;-76
2022/01/22 11:13:27;;;;;;;9.98;4.97;;;7.10;99.90;;;;;;4994999;28;20031;-76
2022/01/22 11:15:54;;;;;;;10.52;4.03;;;7.10;99.90;;;;;;4994142;28;20036;-76
2022/01/22 11:18:21;;;;;;;6.57;3.42;;;7.20;99.90;;;;;;4995652;28;20037;-77
2022/01/22 11:21:13;;;;;;;6.30;2.97;;;7.20;99.90;;;;;;4992077;28;20117;-77
2022/01/22 11:23:43;;;;;;;7.53;3.03;;;7.20;99.90;;;;;;5000685;28;20076;-76
2022/01/22 11:26:14;;;;;;;4.07;2.38;;;7.10;99.90;;;;;;5000698;28;20033;-76
2022/01/22 11:28:43;;;;;;;3.28;1.63;;;7.10;99.90;;;;;;4977101;28;20472;-75
2022/01/22 11:31:10;;;;;;;4.88;1.77;;;7.10;99.90;;;;;;4992890;28;20085;-76
2022/01/22 11:33:40;;;;;;;2.67;1.60;;;7.10;99.90;;;;;;4992847;28;20031;-76
2022/01/22 11:36:13;;;;;;;3.85;1.63;;;7.10;99.90;;;;;;4992606;28;20023;-76
2022/01/22 11:38:41;;;;;;;4.45;2.05;;;7.10;99.90;;;;;;4991878;28;20041;-75
2022/01/22 11:41:24;;;;;;;2.83;1.52;;;7.10;99.90;;;;;;4975394;28;20041;-77
2022/01/22 11:44:10;;;;;;;3.33;1.58;;;7.10;99.90;;;;;;4991591;28;20062;-77
2022/01/22 11:47:37;;;;;;;5.30;2.33;;;7.10;99.90;;;;;;4999781;28;20045;-77
2022/01/22 11:50:15;;;;;;;6.80;2.92;;;7.10;99.90;;;;;;4959879;28;20046;-76
2022/01/22 11:52:42;;;;;;;6.93;3.47;;;7.20;99.90;;;;;;5007205;28;20022;-75
2022/01/22 11:55:15;;;;;;;6.35;3.95;;;7.20;99.90;;;;;;4993776;28;20030;-76
2022/01/22 11:57:43;;;;;;;6.70;4.20;;;7.20;99.90;;;;;;4996378;28;20027;-77
2022/01/22 12:00:29;;;;;;;7.10;4.22;;;7.10;99.90;;;;;;4992548;28;20026;-77
2022/01/22 12:03:03;;;;;;;7.15;4.43;;;7.20;99.90;;;;;;4990212;28;20442;-77
2022/01/22 12:05:30;;;;;;;11.70;4.75;;;7.20;99.90;;;;;;4992047;28;20062;-77
2022/01/22 12:08:00;;;;;;;10.45;5.10;;;7.20;99.90;;;;;;4987464;28;20043;-77
2022/01/22 12:10:38;;;;;;;7.35;3.83;;;7.20;99.90;;;;;;4974537;28;20106;-76
2022/01/22 12:16:08;;;;;;;6.20;3.33;;;7.20;99.90;;;;;;4991238;28;20026;-77
2022/01/22 12:18:40;;;;;;;5.57;3.60;;;7.20;99.90;;;;;;4990637;28;20037;-76
2022/01/22 12:23:32;;;;;;;5.88;2.90;;;7.20;99.90;;;;;;4992688;28;20424;-75
2022/01/22 12:26:00;;;;;;;7.57;3.80;;;7.30;99.90;;;;;;4993524;28;20034;-75
2022/01/22 12:28:45;;;;;;;5.72;3.00;;;7.30;99.90;;;;;;4997824;28;20121;-76
2022/01/22 12:31:20;;;;;;;6.30;2.88;;;7.30;99.90;;;;;;4993418;28;20041;-76
2022/01/22 12:33:52;;;;;;;8.73;3.38;;;7.30;99.90;;;;;;4990831;28;20057;-76
2022/01/22 12:36:26;;;;;;;5.80;2.95;;;7.30;99.90;;;;;;4991671;28;20054;-75
2022/01/22 12:39:04;;;;;;;6.47;3.35;;;7.30;99.90;;;;;;4991654;28;20105;-77
2022/01/22 12:44:08;;;;;;;7.60;3.05;;;7.30;99.90;;;;;;4991025;28;20030;-77
2022/01/22 12:46:35;;;;;;;4.25;2.75;;;7.30;99.90;;;;;;4986219;28;20022;-77
2022/01/22 12:49:04;;;;;;;6.07;2.97;;;7.30;99.90;;;;;;4989797;28;20030;-76
2022/01/22 12:51:31;;;;;;;6.60;3.30;;;7.30;99.90;;;;;;4992047;28;20022;-76
2022/01/22 12:53:57;;;;;;;6.93;3.88;;;7.20;99.90;;;;;;4994021;28;20022;-77
2022/01/22 12:59:09;;;;;;;8.75;3.50;;;7.20;99.90;;;;;;4992891;28;20073;-78
2022/01/22 13:01:37;;;;;;;7.10;3.58;;;7.30;99.90;;;;;;4993761;28;20038;-76
2022/01/22 13:04:07;;;;;;;6.75;4.28;;;7.30;99.90;;;;;;4992774;28;21843;-79
2022/01/22 13:06:40;;;;;;;5.93;3.88;;;7.40;99.90;;;;;;4992646;28;20042;-77
2022/01/22 13:09:06;;;;;;;5.20;3.63;;;7.40;99.90;;;;;;4988647;28;20084;-77
2022/01/22 13:11:33;;;;;;;7.55;4.10;;;7.40;99.90;;;;;;4990867;28;20550;-77
2022/01/22 13:13:59;;;;;;;7.00;3.75;;;7.40;99.90;;;;;;4994311;28;20077;-76
2022/01/22 13:16:26;;;;;;;5.78;3.70;;;7.30;99.90;;;;;;4994666;28;20030;-77
2022/01/22 13:18:58;;;;;;;6.40;3.60;;;7.30;99.90;;;;;;4990939;28;20030;-77
2022/01/22 13:21:51;;;;;;;8.27;4.50;;;7.30;99.90;;;;;;4990942;28;20061;-77
2022/01/22 13:24:22;;;;;;;7.97;3.42;;;7.30;99.90;;;;;;4991696;28;20030;-78
2022/01/22 13:26:58;;;;;;;6.97;3.22;;;7.30;99.90;;;;;;4990097;28;20084;-75
2022/01/22 13:29:34;;;;;;;7.32;2.95;;;7.30;99.90;;;;;;5005866;28;20034;-77
2022/01/22 13:49:18;;;;;;;3.58;1.83;;;7.30;99.90;;;;;;4991177;28;20030;-78
2022/01/22 13:51:45;;;;;;;3.25;1.70;;;7.30;99.90;;;;;;4990713;28;20062;-77
2022/01/22 13:54:13;;;;;;;3.75;1.38;;;7.30;99.90;;;;;;4991823;28;20034;-77
2022/01/22 13:56:47;;;;;;;4.45;1.98;;;7.40;99.90;;;;;;4993303;28;20080;-79
2022/01/22 13:59:30;;;;;;;2.83;1.40;;;7.40;99.90;;;;;;4987177;28;20111;-77
2022/01/22 14:04:42;;;;;;;3.03;1.33;;;7.40;99.90;;;;;;4988928;28;20654;-77
2022/01/22 14:07:42;;;;;;;2.40;1.35;;;7.30;99.90;;;;;;4977631;28;20045;-77
2022/01/22 14:10:20;;;;;;;4.75;1.33;;;7.40;99.90;;;;;;4973320;28;20064;-77
2022/01/22 14:12:48;;;;;;;2.35;1.50;;;7.40;99.90;;;;;;4995035;28;20023;-77
2022/01/22 14:15:23;;;;;;;4.63;1.52;;;7.30;99.90;;;;;;4987321;28;20436;-78
2022/01/22 14:18:08;;;;;;;3.60;1.35;;;7.40;99.90;;;;;;4990252;28;20029;-76
2022/01/22 14:20:36;;;;;;;4.82;1.60;;;7.30;99.90;;;;;;4989029;28;20077;-77
2022/01/22 14:23:04;;;;;;;3.80;1.85;;;7.30;99.90;;;;;;4989812;28;20038;-77
2022/01/22 14:25:32;;;;;;;4.90;1.83;;;7.30;99.90;;;;;;4993390;28;20388;-77
2022/01/22 14:28:12;;;;;;;3.45;1.70;;;7.40;99.90;;;;;;4990858;28;20038;-77
2022/01/22 14:30:44;;;;;;;6.50;2.08;;;7.30;99.90;;;;;;4993426;28;20452;-76
2022/01/22 14:33:13;;;;;;;3.78;1.70;;;7.20;99.90;;;;;;4973399;28;20038;-76
2022/01/22 14:35:39;;;;;;;5.32;1.80;;;7.20;99.90;;;;;;4993948;28;20031;-76
2022/01/22 14:38:39;;;;;;;5.43;2.35;;;7.20;99.90;;;;;;4992516;28;20050;-77
2022/01/22 14:46:52;;;;;;;3.28;1.73;;;7.10;99.90;;;;;;4993057;28;20038;-76
2022/01/22 14:49:28;;;;;;;4.90;2.10;;;7.20;99.90;;;;;;4969993;28;20461;-77
2022/01/22 14:51:55;;;;;;;4.68;2.22;;;7.20;99.90;;;;;;4999106;28;20045;-78
2022/01/22 14:54:21;;;;;;;4.05;1.80;;;7.20;99.90;;;;;;4998294;28;20033;-79
2022/01/22 14:56:48;;;;;;;5.03;1.60;;;7.10;99.90;;;;;;4980799;28;20026;-81
2022/01/22 14:59:14;;;;;;;4.30;1.70;;;7.10;99.90;;;;;;4998523;28;20041;-78
2022/01/22 15:01:40;;;;;;;3.40;1.80;;;7.00;99.90;;;;;;5001315;28;20022;-78
2022/01/22 15:04:05;;;;;;;4.22;1.58;;;7.10;99.90;;;;;;4998783;28;20972;-78
2022/01/22 15:06:31;;;;;;;2.58;1.60;;;7.10;99.90;;;;;;4991897;28;20113;-75
2022/01/22 15:09:00;;;;;;;2.90;1.45;;;7.10;99.90;;;;;;4990688;28;20026;-74